Time;durP1;ratioP1;P1;durP2;ratioP2;P2;SDS_P1;SDS_P2;PMS_P1;PMS_P2;Temp;Humidity;BMP_temperature;BMP_pressure;BME280_temperature;BME280_humidity;BME280_pressure;Samples;Min_cycle;Max_cycle;Signal;HPM_P1;HPM_P2
2023/01/29 00:01:38;;;;;;;6.60;3.25;;;;;;;0.49;67.47;102364.63;5146972;27;20083;-57
2023/01/29 00:04:04;;;;;;;8.98;3.80;;;;;;;0.54;67.68;102365.50;5145181;27;20091;-58
2023/01/29 00:06:29;;;;;;;6.07;3.88;;;;;;;0.54;67.59;102369.84;5140045;27;20081;-56
2023/01/29 00:08:56;;;;;;;5.40;3.00;;;;;;;0.54;67.20;102368.09;5142269;27;20167;-58
2023/01/29 00:11:24;;;;;;;7.45;4.38;;;;;;;0.56;67.70;102376.75;5141774;27;20195;-55
2023/01/29 00:13:50;;;;;;;11.27;4.10;;;;;;;0.59;67.47;102374.22;5145772;27;20109;-55
2023/01/29 00:16:15;;;;;;;7.63;3.95;;;;;;;0.64;67.39;102375.97;5140377;27;20082;-61
2023/01/29 00:18:41;;;;;;;7.53;3.85;;;;;;;0.70;67.14;102373.44;5139031;27;20671;-60
2023/01/29 00:21:18;;;;;;;7.32;4.03;;;;;;;0.73;67.11;102376.94;5144250;27;20067;-58
2023/01/29 00:23:44;;;;;;;8.43;4.18;;;;;;;0.78;67.00;102383.88;5143396;27;20095;-57
2023/01/29 00:26:11;;;;;;;10.77;4.00;;;;;;;0.74;67.03;102375.22;5148792;27;20158;-57
2023/01/29 00:28:36;;;;;;;6.70;4.22;;;;;;;0.76;67.67;102376.09;5150374;27;20087;-58
2023/01/29 00:31:19;;;;;;;12.07;4.95;;;;;;;0.77;66.92;102380.44;5136800;27;20082;-58
2023/01/29 00:33:45;;;;;;;10.43;4.13;;;;;;;0.81;67.87;102373.53;5148011;27;20900;-56
2023/01/29 00:36:12;;;;;;;7.38;4.07;;;;;;;0.79;67.20;102364.88;5134095;27;20564;-55
2023/01/29 00:38:38;;;;;;;6.30;4.32;;;;;;;0.82;67.62;102370.09;5149876;27;20075;-57
2023/01/29 00:46:37;;;;;;;11.05;5.10;;;;;;;0.79;68.22;102370.94;5138254;27;20466;-55
2023/01/29 00:49:03;;;;;;;9.15;4.88;;;;;;;0.79;68.22;102376.13;5144949;27;20071;-59
2023/01/29 00:51:29;;;;;;;10.18;5.20;;;;;;;0.81;68.32;102368.34;5141455;27;20079;-60
2023/01/29 00:53:57;;;;;;;11.05;5.65;;;;;;;0.78;68.36;102361.44;5124467;27;20091;-58
2023/01/29 00:56:26;;;;;;;7.53;5.10;;;;;;;0.78;68.02;102374.38;5142285;27;20531;-59
2023/01/29 00:58:52;;;;;;;10.68;5.40;;;;;;;0.77;67.73;102359.69;5138193;27;20075;-58
2023/01/29 01:03:04;;;;;;;8.82;4.85;;;;;;;0.77;68.04;102362.28;5137744;27;20074;-59
2023/01/29 01:04:08;;;;;;;8.57;4.85;;;;;;;0.75;68.14;102358.81;5137617;27;20110;-58
2023/01/29 01:06:37;;;;;;;11.50;5.22;;;;;;;0.74;68.17;102359.66;5132205;27;20450;-59
2023/01/29 01:11:47;;;;;;;9.63;5.10;;;;;;;0.78;68.62;102364.03;5137838;27;20094;-56
2023/01/29 01:14:13;;;;;;;9.15;4.85;;;;;;;0.76;68.72;102365.72;5142742;27;20080;-56
2023/01/29 01:16:38;;;;;;;11.15;5.63;;;;;;;0.78;68.61;102357.97;5141709;27;20091;-59
2023/01/29 01:19:04;;;;;;;12.18;5.38;;;;;;;0.76;68.70;102345.00;5141445;27;20092;-59
2023/01/29 01:21:31;;;;;;;10.38;5.20;;;;;;;0.75;69.02;102332.91;5142486;27;20074;-60
2023/01/29 01:23:56;;;;;;;9.93;5.43;;;;;;;0.73;68.86;102344.97;5133710;27;20098;-60
2023/01/29 01:26:22;;;;;;;10.15;5.43;;;;;;;0.74;68.67;102331.16;5132902;27;20080;-58
2023/01/29 01:28:47;;;;;;;12.80;4.72;;;;;;;0.74;68.54;102339.81;5139410;27;20602;-58
2023/01/29 01:31:14;;;;;;;8.63;4.97;;;;;;;0.76;68.75;102340.66;5143919;27;20075;-59
2023/01/29 01:33:39;;;;;;;12.02;4.65;;;;;;;0.80;68.96;102336.41;5140752;27;20087;-60
2023/01/29 01:36:09;;;;;;;10.32;5.88;;;;;;;0.84;68.85;102338.16;5140765;27;20075;-60
2023/01/29 01:38:43;;;;;;;12.75;5.78;;;;;;;0.84;68.76;102332.97;5137069;27;20095;-60
2023/01/29 01:41:09;;;;;;;8.63;5.00;;;;;;;0.85;69.08;102334.69;5134785;27;20086;-57
2023/01/29 01:43:58;;;;;;;11.90;5.38;;;;;;;0.86;68.71;102326.06;5138176;27;20092;-58
2023/01/29 01:46:30;;;;;;;10.93;4.68;;;;;;;0.86;68.94;102330.41;5145288;27;20091;-57
2023/01/29 01:49:04;;;;;;;11.45;5.88;;;;;;;0.86;68.61;102322.63;5142867;27;20120;-60
2023/01/29 01:51:32;;;;;;;8.30;4.90;;;;;;;0.89;68.54;102326.09;5146065;27;20158;-55
2023/01/29 01:54:23;;;;;;;10.07;5.63;;;;;;;0.90;69.22;102320.06;5139665;27;20607;-57
2023/01/29 01:56:55;;;;;;;14.07;5.60;;;;;;;0.90;69.32;102319.22;5142043;27;20091;-59
2023/01/29 01:59:22;;;;;;;11.82;5.65;;;;;;;0.89;68.92;102312.28;5139121;27;20080;-58
2023/01/29 02:01:52;;;;;;;9.68;5.50;;;;;;;0.91;69.04;102306.25;5141523;27;20075;-58
2023/01/29 02:10:23;;;;;;;11.02;5.88;;;;;;;0.89;69.30;102299.34;5142194;27;20152;-58
2023/01/29 02:12:50;;;;;;;10.70;4.77;;;;;;;0.90;69.41;102301.91;5140759;27;20110;-58
2023/01/29 02:15:15;;;;;;;13.15;5.38;;;;;;;0.89;69.39;102300.19;5141724;27;20333;-56
2023/01/29 02:17:41;;;;;;;17.23;6.30;;;;;;;0.90;69.42;102298.47;5140330;27;20097;-57
2023/01/29 02:20:30;;;;;;;10.05;5.18;;;;;;;0.87;69.34;102295.84;5139706;27;20079;-53
2023/01/29 02:23:11;;;;;;;8.15;3.55;;;;;;;0.85;69.55;102303.59;5139191;27;20106;-55
2023/01/29 02:25:58;;;;;;;11.30;6.13;;;;;;;0.86;69.21;102305.34;5143790;27;20090;-55
2023/01/29 02:28:30;;;;;;;11.65;6.38;;;;;;;0.88;69.52;102308.81;5138431;27;20079;-57
2023/01/29 02:31:08;;;;;;;12.27;5.68;;;;;;;0.87;69.72;102307.06;5140850;27;20446;-53
2023/01/29 02:33:40;;;;;;;10.02;6.40;;;;;;;0.88;69.67;102300.19;5136873;27;20644;-53
2023/01/29 02:36:26;;;;;;;13.15;6.85;;;;;;;0.87;69.51;102296.72;5133424;27;20068;-57
2023/01/29 02:39:13;;;;;;;13.20;6.65;;;;;;;0.87;69.87;102291.53;5145751;27;20683;-54
2023/01/29 02:41:50;;;;;;;12.32;6.72;;;;;;;0.88;70.21;102298.44;5145167;27;20170;-53
2023/01/29 02:44:30;;;;;;;12.27;6.45;;;;;;;0.88;70.41;102298.44;5139275;27;20444;-55
2023/01/29 02:47:38;;;;;;;15.75;6.85;;;;;;;0.89;70.76;102289.81;5143956;27;20171;-55
2023/01/29 02:50:12;;;;;;;15.13;7.13;;;;;;;0.91;70.76;102293.28;5096170;27;20086;-55
2023/01/29 02:53:04;;;;;;;14.63;7.00;;;;;;;0.88;70.33;102288.06;5132192;27;20101;-56
2023/01/29 02:55:49;;;;;;;12.43;7.27;;;;;;;0.89;70.88;102287.22;5133834;27;20558;-54
2023/01/29 02:58:28;;;;;;;15.18;7.20;;;;;;;0.88;70.47;102275.13;5142443;27;20074;-55
2023/01/29 03:00:57;;;;;;;11.23;6.43;;;;;;;0.92;70.62;102273.41;5138044;27;20146;-54
2023/01/29 03:03:30;;;;;;;14.40;7.32;;;;;;;0.95;70.41;102270.84;5142865;27;20093;-56
2023/01/29 03:06:05;;;;;;;14.70;7.05;;;;;;;1.01;70.40;102273.50;5139650;27;20492;-53
2023/01/29 03:08:42;;;;;;;13.68;7.50;;;;;;;0.99;70.25;102270.03;5143469;27;20086;-53
2023/01/29 03:11:13;;;;;;;11.65;6.65;;;;;;;0.99;71.00;102285.56;5137880;27;20074;-57
2023/01/29 03:13:47;;;;;;;15.68;7.75;;;;;;;0.95;70.60;102268.25;5142395;27;20224;-54
2023/01/29 03:16:34;;;;;;;13.50;7.75;;;;;;;0.93;71.07;102266.53;5138354;27;20083;-54
2023/01/29 03:19:23;;;;;;;15.40;7.07;;;;;;;0.92;71.06;102257.84;5140715;27;20110;-54
2023/01/29 03:21:58;;;;;;;17.20;8.45;;;;;;;0.90;70.91;102249.22;5129568;27;20159;-54
2023/01/29 03:32:55;;;;;;;18.30;8.23;;;;;;;0.94;71.10;102231.97;5138293;27;20142;-54
2023/01/29 03:35:34;;;;;;;15.70;7.85;;;;;;;0.95;71.19;102231.13;5133856;27;20573;-53
2023/01/29 03:38:01;;;;;;;17.17;8.23;;;;;;;0.97;71.17;102234.59;5135442;27;20098;-53
2023/01/29 03:40:33;;;;;;;14.38;7.72;;;;;;;0.99;71.85;102222.47;5139336;27;20134;-56
2023/01/29 03:43:06;;;;;;;;;;;;;;;0.98;71.72;102226.81;5141106;27;20578;-56
2023/01/29 03:45:42;;;;;;;18.15;8.68;;;;;;;0.94;71.48;102224.19;5139249;27;19963;-56
2023/01/29 03:48:22;;;;;;;16.60;8.77;;;;;;;0.96;71.72;102218.16;5136688;27;20740;-58
2023/01/29 03:50:50;;;;;;;17.92;8.82;;;;;;;0.98;71.70;102216.44;5132115;27;20083;-57
2023/01/29 03:53:29;;;;;;;17.38;8.70;;;;;;;0.98;71.99;102220.78;5126896;27;20107;-57
2023/01/29 03:56:07;;;;;;;16.20;8.27;;;;;;;0.95;71.64;102205.19;5139365;27;20084;-54
2023/01/29 03:58:43;;;;;;;19.98;9.15;;;;;;;0.95;71.88;102208.63;5138207;27;20072;-58
2023/01/29 04:01:27;;;;;;;16.40;8.27;;;;;;;0.99;72.49;102204.31;5143897;27;20094;-57
2023/01/29 04:04:04;;;;;;;20.83;9.30;;;;;;;0.99;71.68;102201.75;5137129;27;20087;-57
2023/01/29 04:06:35;;;;;;;18.02;8.73;;;;;;;0.98;72.28;102195.69;5138325;27;20075;-58
2023/01/29 04:09:09;;;;;;;17.02;9.80;;;;;;;0.95;72.62;102200.00;5131846;27;20152;-59
2023/01/29 04:11:39;;;;;;;21.77;9.75;;;;;;;0.97;72.44;102195.72;5128501;27;20691;-58
2023/01/29 04:14:06;;;;;;;18.65;10.18;;;;;;;1.01;72.57;102197.44;5140838;27;20715;-55
2023/01/29 04:16:37;;;;;;;20.52;9.77;;;;;;;1.03;72.48;102208.69;5137131;27;20080;-55
2023/01/29 04:19:04;;;;;;;19.55;9.82;;;;;;;1.01;72.60;102211.28;5139284;27;20097;-59
2023/01/29 04:21:31;;;;;;;20.60;9.45;;;;;;;1.02;72.70;102207.84;5134268;27;20166;-55
2023/01/29 04:23:57;;;;;;;20.25;9.80;;;;;;;1.02;73.05;102201.75;5134464;27;20454;-55
2023/01/29 04:26:53;;;;;;;22.00;10.48;;;;;;;0.99;73.53;102201.75;5127861;27;20080;-54
2023/01/29 04:29:46;;;;;;;19.55;9.40;;;;;;;0.97;73.65;102198.28;5139771;27;20106;-55
2023/01/29 04:32:26;;;;;;;14.88;8.65;;;;;;;0.99;73.08;102192.25;5135085;27;20678;-55
2023/01/29 04:34:59;;;;;;;20.55;9.80;;;;;;;1.03;73.38;102198.31;5137797;27;20554;-58
2023/01/29 04:37:24;;;;;;;;;;;;;;;1.00;74.33;102198.28;5132710;27;20453;-56
2023/01/29 04:40:02;;;;;;;23.48;10.88;;;;;;;1.01;73.87;102194.84;5128748;27;19963;-55
2023/01/29 04:42:32;;;;;;;20.73;10.38;;;;;;;1.00;73.72;102198.28;5134851;27;20607;-55
2023/01/29 04:45:17;;;;;;;24.40;9.98;;;;;;;1.00;73.04;102200.88;5134387;27;20562;-57
2023/01/29 04:48:07;;;;;;;25.85;12.15;;;;;;;0.99;73.29;102201.75;5136716;27;20436;-55
2023/01/29 04:50:43;;;;;;;19.15;10.25;;;;;;;0.99;73.90;102202.63;5136183;27;20083;-54
2023/01/29 04:53:14;;;;;;;22.23;10.75;;;;;;;1.00;73.37;102217.31;5140434;27;20105;-54
2023/01/29 04:55:50;;;;;;;20.75;10.68;;;;;;;0.98;73.61;102211.25;5135717;27;20158;-57
2023/01/29 04:58:34;;;;;;;24.55;10.98;;;;;;;1.00;74.20;102209.53;5129289;27;20136;-56
2023/01/29 05:01:04;;;;;;;21.02;10.15;;;;;;;1.03;73.88;102219.94;5126441;27;20120;-54
2023/01/29 05:03:31;;;;;;;25.83;10.90;;;;;;;1.02;73.70;102201.75;5130054;27;20087;-56
2023/01/29 05:06:00;;;;;;;27.05;11.32;;;;;;;1.03;74.26;102195.72;5143234;27;20435;-59
2023/01/29 05:08:28;;;;;;;23.70;11.15;;;;;;;1.06;74.28;102208.72;5145361;27;20107;-60
2023/01/29 05:10:56;;;;;;;24.15;10.77;;;;;;;1.06;73.82;102196.59;5140745;27;20079;-56
2023/01/29 05:13:24;;;;;;;22.70;11.48;;;;;;;1.04;73.92;102200.03;5139422;27;20380;-55
2023/01/29 05:15:56;;;;;;;26.85;12.88;;;;;;;1.04;74.30;102200.94;5141343;27;20067;-55
2023/01/29 05:18:22;;;;;;;24.77;12.43;;;;;;;1.06;74.42;102199.19;5134932;27;20078;-58
2023/01/29 05:20:48;;;;;;;25.92;12.63;;;;;;;1.09;74.34;102213.91;5140055;27;20086;-55
2023/01/29 05:23:16;;;;;;;24.33;11.50;;;;;;;1.11;74.22;102207.03;5138524;27;20092;-58
2023/01/29 05:25:42;;;;;;;22.73;11.80;;;;;;;1.13;74.25;102209.59;5141045;27;20468;-56
2023/01/29 05:28:17;;;;;;;28.10;12.52;;;;;;;1.18;74.68;102208.75;5138802;27;20064;-57
2023/01/29 05:30:47;;;;;;;23.45;10.95;;;;;;;1.21;74.20;102221.75;5139715;27;20461;-58
2023/01/29 05:33:24;;;;;;;23.38;11.60;;;;;;;1.24;74.41;102217.44;5136781;27;20086;-57
2023/01/29 05:35:49;;;;;;;22.45;12.13;;;;;;;1.21;74.28;102216.56;5138058;27;20082;-55
2023/01/29 05:38:17;;;;;;;25.20;11.13;;;;;;;1.24;74.71;102212.25;5125783;27;20067;-53
2023/01/29 05:40:43;;;;;;;26.80;11.90;;;;;;;1.21;74.35;102206.19;5142926;27;20158;-56
2023/01/29 05:43:20;;;;;;;24.92;11.20;;;;;;;1.23;74.42;102202.75;5117653;27;20232;-57
2023/01/29 05:45:53;;;;;;;17.95;7.78;;;;;;;1.21;75.74;102207.94;5134986;27;20113;-55
2023/01/29 05:48:18;;;;;;;13.75;6.40;;;;;;;1.23;75.53;102205.34;5132835;27;20195;-58
2023/01/29 05:50:43;;;;;;;26.75;12.02;;;;;;;1.25;75.29;102198.44;5132812;27;20110;-56
2023/01/29 05:53:09;;;;;;;25.13;11.20;;;;;;;1.24;75.48;102191.50;5138157;27;20170;-60
2023/01/29 05:55:34;;;;;;;27.95;12.93;;;;;;;1.23;75.46;102201.00;5128897;27;20079;-56
2023/01/29 05:58:00;;;;;;;26.50;12.45;;;;;;;1.23;75.13;102205.34;5135552;27;20442;-53
2023/01/29 06:00:26;;;;;;;31.63;13.35;;;;;;;1.24;75.42;102209.66;5136244;27;20129;-55
2023/01/29 06:02:51;;;;;;;24.92;12.00;;;;;;;1.24;75.69;102207.06;5126755;27;20118;-55
2023/01/29 06:05:17;;;;;;;27.90;12.23;;;;;;;1.22;75.54;102201.84;5136178;27;20080;-54
2023/01/29 06:07:44;;;;;;;26.80;11.70;;;;;;;1.21;75.65;102206.19;5140109;27;20465;-55
2023/01/29 06:10:12;;;;;;;28.95;12.38;;;;;;;1.21;76.12;102208.78;5137235;27;20107;-52
2023/01/29 06:12:37;;;;;;;27.05;12.18;;;;;;;1.26;75.97;102201.03;5123111;27;20083;-54
2023/01/29 06:15:03;;;;;;;29.30;11.55;;;;;;;1.25;75.90;102199.28;5142137;27;20078;-54
2023/01/29 06:17:29;;;;;;;30.10;14.15;;;;;;;1.26;76.01;102202.75;5132303;27;20083;-56
2023/01/29 06:19:54;;;;;;;28.40;12.45;;;;;;;1.26;76.38;102197.56;5137905;27;20075;-53
2023/01/29 06:22:19;;;;;;;35.10;14.20;;;;;;;1.28;76.29;102195.88;5133755;27;20102;-53
2023/01/29 06:24:45;;;;;;;25.77;12.10;;;;;;;1.31;76.63;102193.25;5139370;27;20091;-53
2023/01/29 06:27:10;;;;;;;27.48;12.32;;;;;;;1.34;76.35;102193.28;5122466;27;20086;-54
2023/01/29 06:29:36;;;;;;;30.98;12.95;;;;;;;1.34;76.45;102180.31;5120934;27;20090;-56
2023/01/29 06:32:01;;;;;;;30.83;13.60;;;;;;;1.38;76.92;102184.66;5137975;27;20084;-54
2023/01/29 06:34:27;;;;;;;28.63;12.52;;;;;;;1.42;76.96;102201.97;5141071;27;20075;-53
2023/01/29 06:36:52;;;;;;;33.08;12.75;;;;;;;1.41;76.87;102192.47;5136492;27;20158;-54
2023/01/29 06:39:18;;;;;;;28.15;12.13;;;;;;;1.40;77.12;102192.44;5139820;27;20071;-57
2023/01/29 06:41:44;;;;;;;34.50;14.00;;;;;;;1.37;76.85;102203.66;5144736;27;20075;-55
2023/01/29 06:44:09;;;;;;;33.20;14.10;;;;;;;1.37;77.25;102208.84;5142508;27;20088;-54
2023/01/29 06:46:35;;;;;;;35.53;14.48;;;;;;;1.41;76.76;102205.44;5146646;27;20080;-54
2023/01/29 06:49:00;;;;;;;21.95;9.95;;;;;;;1.42;76.84;102201.97;5136236;27;20538;-58
2023/01/29 06:51:26;;;;;;;34.10;13.68;;;;;;;1.44;77.08;102197.63;5129693;27;20678;-55
2023/01/29 06:53:53;;;;;;;23.13;9.43;;;;;;;1.41;77.35;102182.06;5133359;27;20110;-56
2023/01/29 06:56:18;;;;;;;40.50;17.10;;;;;;;1.38;77.66;102187.25;5141263;27;20103;-58
2023/01/29 06:58:44;;;;;;;38.15;16.05;;;;;;;1.36;77.62;102201.94;5127601;27;20119;-53
2023/01/29 07:01:11;;;;;;;39.92;15.98;;;;;;;1.36;77.90;102199.34;5141132;27;20123;-55
2023/01/29 07:03:37;;;;;;;37.53;15.73;;;;;;;1.39;77.66;102188.09;5143333;27;20095;-55
2023/01/29 07:06:04;;;;;;;37.22;14.95;;;;;;;1.41;77.60;102189.84;5140837;27;20079;-54
2023/01/29 07:08:30;;;;;;;41.00;14.45;;;;;;;1.45;77.80;102207.16;5145891;27;20176;-55
2023/01/29 07:10:59;;;;;;;40.65;15.48;;;;;;;1.43;77.27;102198.53;5142843;27;20189;-56
2023/01/29 07:13:25;;;;;;;39.10;15.70;;;;;;;1.40;77.87;102182.94;5140614;27;20122;-54
2023/01/29 07:15:50;;;;;;;32.17;14.98;;;;;;;1.41;77.74;102181.19;5139735;27;20118;-53
2023/01/29 07:18:16;;;;;;;24.40;10.43;;;;;;;1.41;77.98;102186.38;5124180;27;20550;-56
2023/01/29 07:20:42;;;;;;;32.75;13.73;;;;;;;1.46;77.76;102182.09;5138319;27;20079;-57
2023/01/29 07:23:12;;;;;;;39.40;15.38;;;;;;;1.48;77.63;102180.38;5138273;27;20173;-58
2023/01/29 07:25:39;;;;;;;37.15;15.60;;;;;;;1.45;77.67;102189.00;5137035;27;20535;-59
2023/01/29 07:28:05;;;;;;;33.00;14.55;;;;;;;1.44;77.84;102187.25;5135843;27;20075;-55
2023/01/29 07:30:30;;;;;;;31.52;15.32;;;;;;;1.46;77.62;102180.34;5143769;27;20092;-59
2023/01/29 07:33:03;;;;;;;36.40;15.35;;;;;;;1.47;78.03;102163.91;5146248;27;20103;-60
2023/01/29 07:35:29;;;;;;;36.17;13.70;;;;;;;1.47;77.29;102150.94;5144884;27;20079;-59
2023/01/29 07:37:55;;;;;;;34.95;14.43;;;;;;;1.49;77.82;102145.78;5140690;27;20080;-58
2023/01/29 07:40:20;;;;;;;36.83;14.95;;;;;;;1.50;77.62;102158.75;5138647;27;20072;-57
2023/01/29 07:42:46;;;;;;;36.83;13.98;;;;;;;1.51;77.61;102163.06;5139675;27;20095;-59
2023/01/29 07:45:12;;;;;;;42.30;15.30;;;;;;;1.52;77.50;102149.25;5132461;27;20076;-57
2023/01/29 07:47:37;;;;;;;40.05;15.45;;;;;;;1.55;77.37;102157.91;5136977;27;20529;-55
2023/01/29 07:50:04;;;;;;;36.88;15.13;;;;;;;1.53;78.02;102139.72;5137505;27;20115;-53
2023/01/29 07:52:32;;;;;;;31.13;13.77;;;;;;;1.57;77.43;102156.19;5137782;27;20098;-54
2023/01/29 07:54:57;;;;;;;37.80;14.73;;;;;;;1.60;77.74;102161.34;5134278;27;20512;-58
2023/01/29 07:57:23;;;;;;;30.80;13.30;;;;;;;1.61;77.83;102163.97;5137869;27;20068;-56
2023/01/29 07:59:49;;;;;;;31.45;13.55;;;;;;;1.59;77.47;102147.53;5136100;27;20091;-57
2023/01/29 08:02:14;;;;;;;36.45;15.18;;;;;;;1.60;77.51;102150.97;5137222;27;20100;-59
2023/01/29 08:04:40;;;;;;;31.85;14.65;;;;;;;1.64;77.61;102145.81;5135185;27;20179;-55
2023/01/29 08:07:05;;;;;;;33.88;15.55;;;;;;;1.66;77.40;102144.06;5139613;27;20135;-56
2023/01/29 08:09:31;;;;;;;36.17;15.63;;;;;;;1.72;77.41;102138.06;5142819;27;20067;-58
2023/01/29 08:11:57;;;;;;;30.27;13.40;;;;;;;1.77;77.45;102146.69;5132637;27;20063;-56
2023/01/29 08:14:22;;;;;;;31.95;13.02;;;;;;;1.83;77.55;102151.91;5132212;27;20091;-56
2023/01/29 08:16:49;;;;;;;34.10;14.25;;;;;;;1.85;77.69;102157.09;5133893;27;20132;-55
2023/01/29 08:19:14;;;;;;;33.47;14.13;;;;;;;1.82;77.16;102152.75;5131540;27;20083;-59
2023/01/29 08:21:40;;;;;;;35.95;14.20;;;;;;;1.82;77.66;102144.97;5133429;27;20090;-56
2023/01/29 08:24:06;;;;;;;34.13;14.27;;;;;;;1.85;77.55;102145.84;5135008;27;20622;-59
2023/01/29 08:26:31;;;;;;;36.03;13.15;;;;;;;1.86;77.25;102129.41;5137600;27;20076;-58
2023/01/29 08:28:56;;;;;;;37.38;15.98;;;;;;;1.85;77.59;102132.88;5131907;27;20071;-60
2023/01/29 08:31:22;;;;;;;37.05;15.80;;;;;;;1.87;77.46;102129.41;5127107;27;20091;-51
2023/01/29 08:33:47;;;;;;;37.50;16.00;;;;;;;1.90;77.45;102126.81;5129308;27;20087;-56
2023/01/29 08:36:13;;;;;;;36.67;15.90;;;;;;;1.92;77.20;102132.00;5135829;27;20179;-55
2023/01/29 08:38:40;;;;;;;36.17;16.40;;;;;;;1.92;77.46;102129.41;5129148;27;20094;-56
2023/01/29 08:41:06;;;;;;;35.22;16.75;;;;;;;1.94;77.76;102127.69;5133709;27;20076;-55
2023/01/29 08:43:32;;;;;;;35.58;16.33;;;;;;;1.95;76.94;102113.84;5136283;27;20087;-57
2023/01/29 08:45:57;;;;;;;39.42;15.95;;;;;;;1.98;77.61;102106.06;5144458;27;20607;-53
2023/01/29 08:48:24;;;;;;;35.70;16.52;;;;;;;2.01;77.32;102108.66;5130990;27;20080;-54
2023/01/29 08:50:50;;;;;;;34.92;15.35;;;;;;;2.04;77.19;102111.22;5135715;27;20077;-53
2023/01/29 08:53:18;;;;;;;35.35;15.48;;;;;;;2.04;77.21;102105.19;5134485;27;20114;-56
2023/01/29 08:55:45;;;;;;;37.97;14.65;;;;;;;2.02;77.32;102113.00;5142628;27;20076;-56
2023/01/29 08:58:11;;;;;;;33.75;15.40;;;;;;;2.02;76.93;102119.91;5133126;27;20441;-58
2023/01/29 09:00:36;;;;;;;39.90;17.65;;;;;;;2.00;77.26;102117.31;5137712;27;20083;-57
2023/01/29 09:03:02;;;;;;;31.73;14.98;;;;;;;2.00;77.17;102122.50;5136262;27;20110;-58
2023/01/29 09:05:31;;;;;;;40.58;15.57;;;;;;;2.02;77.60;102120.78;5138182;27;20214;-58
2023/01/29 09:07:57;;;;;;;37.35;14.38;;;;;;;2.05;77.41;102122.50;5133925;27;20113;-56
2023/01/29 09:10:22;;;;;;;31.75;14.88;;;;;;;2.10;77.14;102133.75;5118587;27;20118;-58
2023/01/29 09:12:48;;;;;;;29.95;13.13;;;;;;;2.12;77.25;102140.66;5133770;27;20123;-56
2023/01/29 09:15:13;;;;;;;34.90;14.00;;;;;;;2.13;76.98;102142.41;5143997;27;20120;-57
2023/01/29 09:17:39;;;;;;;31.23;14.75;;;;;;;2.17;77.14;102134.63;5147431;27;20111;-59
2023/01/29 09:20:06;;;;;;;36.30;14.35;;;;;;;2.20;76.99;102129.41;5141849;27;20079;-59
2023/01/29 09:22:31;;;;;;;34.50;15.07;;;;;;;2.21;76.96;102113.84;5145082;27;20123;-59
2023/01/29 09:24:57;;;;;;;34.35;15.55;;;;;;;2.26;76.69;102113.81;5146667;27;20122;-60
2023/01/29 09:27:22;;;;;;;32.33;14.32;;;;;;;2.26;76.60;102113.81;5141450;27;20103;-58
2023/01/29 09:29:48;;;;;;;30.90;14.00;;;;;;;2.27;76.73;102120.75;5144575;27;20543;-59
2023/01/29 09:32:13;;;;;;;34.53;13.15;;;;;;;2.29;76.69;102122.47;5145116;27;20110;-60
2023/01/29 09:34:39;;;;;;;31.35;13.52;;;;;;;2.28;76.68;102123.34;5137453;27;20083;-59
2023/01/29 09:37:05;;;;;;;27.70;12.77;;;;;;;2.29;77.16;102113.81;5130804;27;20509;-61
2023/01/29 09:39:30;;;;;;;32.22;13.82;;;;;;;2.35;76.77;102113.81;5138139;27;20097;-56
2023/01/29 09:42:09;;;;;;;26.00;12.40;;;;;;;2.35;76.93;102106.00;5129108;27;20083;-59
2023/01/29 09:45:03;;;;;;;28.80;13.55;;;;;;;2.37;76.73;102111.22;5139833;27;20118;-57
2023/01/29 09:47:32;;;;;;;28.58;13.30;;;;;;;2.46;76.63;102099.94;5114057;27;20170;-57
2023/01/29 09:50:05;;;;;;;34.47;15.25;;;;;;;2.50;76.85;102096.44;5144718;27;20087;-60
2023/01/29 09:52:45;;;;;;;32.40;13.57;;;;;;;2.53;76.43;102101.66;5132085;27;20099;-60
2023/01/29 09:55:19;;;;;;;28.02;13.80;;;;;;;2.57;76.49;102093.00;5148038;27;20106;-59
2023/01/29 09:57:49;;;;;;;28.58;12.50;;;;;;;2.64;76.24;102094.72;5145587;27;20070;-58
2023/01/29 10:00:24;;;;;;;33.00;13.27;;;;;;;2.66;76.32;102105.09;5149282;27;20082;-57
2023/01/29 10:03:06;;;;;;;32.58;14.30;;;;;;;2.68;76.26;102105.97;5136924;27;20091;-58
2023/01/29 10:05:53;;;;;;;37.72;13.98;;;;;;;2.67;76.13;102112.88;5144911;27;20092;-56
2023/01/29 10:08:45;;;;;;;30.05;14.07;;;;;;;2.67;76.25;102115.47;5150104;27;20079;-59
2023/01/29 10:11:22;;;;;;;28.03;13.00;;;;;;;2.68;76.22;102117.22;5138270;27;20080;-59
2023/01/29 10:14:30;;;;;;;33.70;15.95;;;;;;;2.71;76.37;102119.81;5145391;27;20344;-56
2023/01/29 10:17:29;;;;;;;30.10;13.38;;;;;;;2.76;75.83;102113.75;5129980;27;20079;-56
2023/01/29 10:20:15;;;;;;;24.83;12.40;;;;;;;2.78;75.79;102084.25;5144948;27;20548;-58
2023/01/29 10:22:41;;;;;;;32.33;14.38;;;;;;;2.81;75.60;102088.56;5133171;27;20105;-56
2023/01/29 10:25:12;;;;;;;30.08;12.82;;;;;;;2.82;75.61;102075.59;5127532;27;20088;-55
2023/01/29 10:27:40;;;;;;;32.47;14.50;;;;;;;2.81;75.77;102071.25;5127969;27;20183;-54
2023/01/29 10:30:20;;;;;;;31.35;13.48;;;;;;;2.89;75.60;102063.44;5132339;27;20094;-56
2023/01/29 10:32:47;;;;;;;27.83;12.98;;;;;;;2.98;75.60;102052.97;5132472;27;20099;-57
2023/01/29 10:35:12;;;;;;;26.67;12.27;;;;;;;3.08;75.47;102052.94;5137194;27;20569;-56
2023/01/29 10:37:42;;;;;;;28.05;12.10;;;;;;;3.10;75.35;102052.03;5127277;27;20175;-55
2023/01/29 10:40:21;;;;;;;30.15;12.27;;;;;;;3.11;75.29;102038.19;5126223;27;20183;-59
2023/01/29 10:43:04;;;;;;;32.20;12.98;;;;;;;3.16;75.40;102040.75;5134267;27;20102;-55
2023/01/29 10:45:55;;;;;;;32.30;13.32;;;;;;;3.18;75.22;102031.19;5141950;27;20067;-58
2023/01/29 10:48:44;;;;;;;29.90;13.43;;;;;;;3.25;75.42;102029.41;5138772;27;20091;-54
2023/01/29 10:51:39;;;;;;;27.52;12.65;;;;;;;3.28;75.17;102025.06;5138843;27;21365;-54
2023/01/29 10:54:22;;;;;;;24.58;11.68;;;;;;;3.35;75.30;102018.94;5101205;27;20110;-56
2023/01/29 10:56:48;;;;;;;23.98;12.85;;;;;;;3.39;75.27;102029.34;5132802;27;20075;-57
2023/01/29 11:00:12;;;;;;;27.27;12.38;;;;;;;3.42;75.32;102016.28;5140638;27;20462;-58
2023/01/29 11:02:47;;;;;;;17.23;7.47;;;;;;;3.45;75.09;102021.47;5062912;28;20107;-55
2023/01/29 11:05:39;;;;;;;30.13;13.45;;;;;;;3.53;75.05;102006.69;5055151;28;20088;-55
2023/01/29 11:08:14;;;;;;;33.15;14.27;;;;;;;3.63;75.00;102000.50;5128933;27;20093;-56
2023/01/29 11:11:03;;;;;;;23.20;11.20;;;;;;;3.72;74.69;101993.47;5140584;27;20161;-55
2023/01/29 11:13:34;;;;;;;22.30;10.50;;;;;;;3.77;74.84;101994.31;5123870;27;20150;-56
2023/01/29 11:15:59;;;;;;;24.73;11.32;;;;;;;3.73;74.63;101997.81;5141205;27;20063;-56
2023/01/29 11:18:25;;;;;;;24.10;10.40;;;;;;;3.70;74.91;101992.66;5147296;27;20586;-55
2023/01/29 11:21:01;;;;;;;21.85;10.25;;;;;;;3.70;75.07;101992.66;5141220;27;20129;-54
2023/01/29 11:23:30;;;;;;;19.25;9.63;;;;;;;3.69;74.95;101990.94;5132356;27;20105;-56
2023/01/29 11:25:57;;;;;;;23.65;11.07;;;;;;;3.75;74.91;101994.34;5140144;27;20174;-56
2023/01/29 11:28:43;;;;;;;24.90;10.98;;;;;;;3.87;74.49;101989.88;5137878;27;20072;-57
2023/01/29 11:31:36;;;;;;;19.98;10.27;;;;;;;3.89;74.37;102002.00;5145503;27;20077;-58
2023/01/29 11:34:18;;;;;;;;;;;;;;;3.88;74.53;101982.03;5109508;27;20176;-56
2023/01/29 11:36:43;;;;;;;19.67;10.57;;;;;;;4.03;74.08;101985.38;5121995;27;19993;-55
2023/01/29 11:39:22;;;;;;;26.90;10.43;;;;;;;4.06;73.87;101993.16;5137204;27;20084;-54
2023/01/29 11:42:03;;;;;;;18.15;8.80;;;;;;;4.09;73.92;101978.34;5135920;27;20087;-57
2023/01/29 11:44:35;;;;;;;21.70;9.85;;;;;;;4.15;73.87;101974.84;5143944;27;20549;-54
2023/01/29 11:47:13;;;;;;;19.92;9.63;;;;;;;4.22;73.78;101958.25;5140808;27;20182;-55
2023/01/29 11:49:45;;;;;;;18.27;8.60;;;;;;;4.23;73.63;101952.16;5144430;27;20071;-55
2023/01/29 11:52:12;;;;;;;19.00;9.18;;;;;;;4.23;73.50;101944.34;5143127;27;20146;-54
2023/01/29 11:54:49;;;;;;;18.00;9.77;;;;;;;4.15;73.59;101940.97;5139714;27;20097;-55
2023/01/29 11:57:45;;;;;;;22.10;9.65;;;;;;;4.21;73.57;101940.88;5140171;27;20713;-55
2023/01/29 12:00:26;;;;;;;16.83;8.73;;;;;;;4.19;73.37;101937.44;5135979;27;20140;-57
2023/01/29 12:03:00;;;;;;;19.85;9.85;;;;;;;4.20;73.28;101926.13;5139646;27;20148;-55
2023/01/29 12:05:26;;;;;;;19.63;8.90;;;;;;;4.24;73.48;101940.88;5140936;27;20434;-54